createdAt,value
2018-08-20T00:00:45.189Z,5.97
2018-08-20T00:03:13.857Z,7.00
2018-08-20T00:05:47.325Z,6.80
2018-08-20T00:08:15.762Z,6.30
2018-08-20T00:10:44.189Z,6.30
2018-08-20T00:13:12.626Z,6.13
2018-08-20T00:15:41.061Z,6.33
2018-08-20T00:18:12.333Z,6.90
2018-08-20T00:20:40.764Z,6.13
2018-08-20T00:23:09.164Z,6.47
2018-08-20T00:25:37.869Z,6.43
2018-08-20T00:28:06.285Z,6.33
2018-08-20T00:30:34.770Z,6.40
2018-08-20T00:33:03.186Z,6.13
2018-08-20T00:35:31.609Z,6.30
2018-08-20T00:38:00.021Z,6.13
2018-08-20T00:40:33.203Z,5.97
2018-08-20T00:43:01.650Z,5.83
2018-08-20T00:45:30.105Z,6.60
2018-08-20T00:47:58.511Z,5.80
2018-08-20T00:50:26.908Z,6.83
2018-08-20T00:52:55.389Z,5.80
2018-08-20T00:55:23.844Z,5.87
2018-08-20T00:57:52.298Z,6.10
2018-08-20T01:00:20.767Z,5.67
2018-08-20T01:02:49.205Z,6.13
2018-08-20T01:05:17.665Z,6.57
2018-08-20T01:07:46.105Z,6.87
2018-08-20T01:10:14.569Z,6.53
2018-08-20T01:12:43.013Z,6.63
2018-08-20T01:15:11.539Z,6.43
2018-08-20T01:17:39.968Z,6.47
2018-08-20T01:20:08.514Z,6.90
2018-08-20T01:22:37.015Z,6.57
2018-08-20T01:25:05.521Z,6.93
2018-08-20T01:27:33.986Z,7.10
2018-08-20T01:30:02.476Z,6.70
2018-08-20T01:32:30.967Z,7.30
2018-08-20T01:35:14.779Z,7.17
2018-08-20T01:37:43.317Z,6.90
2018-08-20T01:40:11.733Z,7.20
2018-08-20T01:42:40.235Z,7.33
2018-08-20T01:45:08.689Z,6.80
2018-08-20T01:47:37.153Z,7.40
2018-08-20T01:50:05.733Z,7.77
2018-08-20T01:52:34.224Z,7.70
2018-08-20T01:55:02.713Z,8.90
2018-08-20T01:57:31.187Z,8.17
2018-08-20T01:59:59.649Z,8.47
2018-08-20T02:02:28.133Z,8.10
2018-08-20T02:04:56.654Z,8.00
2018-08-20T02:07:25.113Z,8.50
2018-08-20T02:09:53.612Z,8.03
2018-08-20T02:12:22.072Z,8.90
2018-08-20T02:14:50.509Z,8.23
2018-08-20T02:17:19.084Z,8.70
2018-08-20T02:19:47.520Z,8.77
2018-08-20T02:22:16.014Z,8.47
2018-08-20T02:24:44.460Z,8.70
2018-08-20T02:27:12.941Z,8.70
2018-08-20T02:29:41.501Z,8.73
2018-08-20T02:32:10.001Z,9.67
2018-08-20T02:34:38.427Z,10.13
2018-08-20T02:37:07.116Z,9.33
2018-08-20T02:39:35.614Z,9.80
2018-08-20T02:42:06.210Z,10.63
2018-08-20T02:44:34.658Z,9.37
2018-08-20T02:47:03.199Z,8.83
2018-08-20T02:49:31.664Z,10.23
2018-08-20T02:52:00.119Z,9.70
2018-08-20T02:54:28.613Z,10.40
2018-08-20T02:56:57.076Z,10.20
2018-08-20T02:59:26.333Z,11.37
2018-08-20T03:01:54.731Z,11.37
2018-08-20T03:04:23.178Z,11.20
2018-08-20T03:06:51.570Z,11.00
2018-08-20T03:09:19.969Z,10.20
2018-08-20T03:11:48.403Z,9.93
2018-08-20T03:14:16.832Z,10.63
2018-08-20T03:16:45.240Z,10.03
2018-08-20T03:19:13.634Z,9.57
2018-08-20T03:21:42.037Z,11.65
2018-08-20T03:24:10.570Z,9.97
2018-08-20T03:26:39.002Z,10.67
2018-08-20T03:29:07.432Z,10.63
2018-08-20T03:31:35.858Z,9.50
2018-08-20T03:34:04.322Z,10.17
2018-08-20T03:36:32.944Z,9.93
2018-08-20T03:39:02.005Z,9.90
2018-08-20T03:41:30.397Z,9.27
2018-08-20T03:43:58.861Z,8.63
2018-08-20T03:46:27.368Z,9.57
2018-08-20T03:48:55.762Z,9.17
2018-08-20T03:51:24.281Z,9.60
2018-08-20T03:53:52.905Z,8.73
2018-08-20T03:56:21.598Z,9.00
2018-08-20T03:58:50.585Z,8.50
2018-08-20T04:01:19.162Z,9.13
2018-08-20T04:03:47.809Z,8.63
2018-08-20T04:06:16.501Z,8.37
2018-08-20T04:09:48.715Z,8.27
2018-08-20T04:12:17.357Z,8.73
2018-08-20T04:14:45.944Z,8.27
2018-08-20T04:17:14.757Z,8.80
2018-08-20T04:19:43.391Z,8.67
2018-08-20T04:22:12.060Z,7.00
2018-08-20T04:24:56.922Z,7.30
2018-08-20T04:27:25.601Z,6.60
2018-08-20T04:29:54.257Z,6.47
2018-08-20T04:32:23.005Z,6.90
2018-08-20T04:34:51.658Z,5.90
2018-08-20T04:37:20.274Z,5.90
2018-08-20T04:39:48.903Z,6.03
2018-08-20T04:42:17.787Z,6.07
2018-08-20T04:44:46.457Z,6.20
2018-08-20T04:47:15.025Z,6.37
2018-08-20T04:49:43.657Z,5.67
2018-08-20T04:52:12.099Z,6.10
2018-08-20T04:54:40.505Z,6.53
2018-08-20T04:57:08.973Z,6.33
2018-08-20T04:59:37.369Z,6.70
2018-08-20T05:02:06.034Z,6.20
2018-08-20T05:04:34.463Z,6.33
2018-08-20T05:07:02.946Z,6.53
2018-08-20T05:09:31.478Z,6.13
2018-08-20T05:11:59.998Z,6.10
2018-08-20T05:14:28.425Z,6.10
2018-08-20T05:16:56.947Z,6.33
2018-08-20T05:19:25.385Z,6.00
2018-08-20T05:21:53.841Z,5.70
2018-08-20T05:24:22.335Z,6.13
2018-08-20T05:26:50.765Z,5.80
2018-08-20T05:29:19.740Z,5.63
2018-08-20T05:31:48.174Z,5.67
2018-08-20T05:34:16.656Z,5.60
2018-08-20T05:36:45.126Z,5.40
2018-08-20T05:39:13.557Z,6.00
2018-08-20T05:41:41.975Z,5.70
2018-08-20T05:44:10.397Z,5.50
2018-08-20T05:46:38.839Z,5.57
2018-08-20T05:49:07.305Z,5.27
2018-08-20T05:51:35.765Z,5.37
2018-08-20T05:54:04.343Z,5.07
2018-08-20T05:56:32.800Z,5.03
2018-08-20T05:59:01.253Z,4.87
2018-08-20T06:01:30.021Z,5.57
2018-08-20T06:03:58.515Z,4.90
2018-08-20T06:06:27.041Z,5.10
2018-08-20T06:08:55.470Z,4.97
2018-08-20T06:11:23.925Z,5.40
2018-08-20T06:13:52.405Z,5.13
2018-08-20T06:16:23.869Z,4.90
2018-08-20T06:18:52.359Z,5.30
2018-08-20T06:21:20.842Z,4.63
2018-08-20T06:23:49.326Z,5.10
2018-08-20T06:26:17.804Z,5.40
2018-08-20T06:28:46.286Z,5.50
2018-08-20T06:31:14.707Z,5.47
2018-08-20T06:33:43.194Z,5.47
2018-08-20T06:36:11.750Z,4.50
2018-08-20T06:38:40.248Z,5.17
2018-08-20T06:41:08.840Z,4.47
2018-08-20T06:43:37.280Z,4.23
2018-08-20T06:46:05.857Z,5.03
2018-08-20T06:48:34.404Z,4.93
2018-08-20T06:51:02.898Z,5.00
2018-08-20T06:53:31.390Z,4.33
2018-08-20T06:55:59.877Z,4.40
2018-08-20T06:58:28.490Z,4.73
2018-08-20T07:00:57.051Z,4.37
2018-08-20T07:03:25.521Z,4.90
2018-08-20T07:05:53.955Z,5.03
2018-08-20T07:08:22.463Z,5.03
2018-08-20T07:10:50.939Z,4.80
2018-08-20T07:13:27.449Z,4.90
2018-08-20T07:15:55.887Z,5.03
2018-08-20T07:18:24.373Z,5.00
2018-08-20T07:20:52.837Z,4.77
2018-08-20T07:23:21.437Z,4.87
2018-08-20T07:25:49.926Z,5.10
2018-08-20T07:28:18.385Z,5.00
2018-08-20T07:30:46.963Z,5.00
2018-08-20T07:33:15.507Z,4.57
2018-08-20T07:35:43.969Z,4.57
2018-08-20T07:38:11.424Z,4.23
2018-08-20T07:40:39.886Z,4.67
2018-08-20T07:43:08.459Z,4.30
2018-08-20T07:45:36.935Z,4.50
2018-08-20T07:48:05.433Z,3.93
2018-08-20T07:50:33.943Z,4.07
2018-08-20T07:53:02.393Z,4.00
2018-08-20T07:55:30.906Z,4.27
2018-08-20T07:57:59.328Z,4.13
2018-08-20T08:00:27.740Z,4.57
2018-08-20T08:02:56.204Z,4.00
2018-08-20T08:05:24.609Z,4.40
2018-08-20T08:07:53.054Z,4.37
2018-08-20T08:10:21.489Z,4.53
2018-08-20T08:12:49.887Z,4.23
2018-08-20T08:15:18.342Z,4.33
2018-08-20T08:17:46.980Z,4.57
2018-08-20T08:20:16.016Z,4.50
2018-08-20T08:22:44.738Z,4.47
2018-08-20T08:25:13.196Z,4.63
2018-08-20T08:27:41.626Z,4.23
2018-08-20T08:30:16.817Z,4.37
2018-08-20T08:32:45.442Z,4.80
2018-08-20T08:35:14.523Z,4.87
2018-08-20T08:37:43.052Z,4.53
2018-08-20T08:40:13.270Z,5.10
2018-08-20T08:42:41.733Z,4.60
2018-08-20T08:45:17.068Z,4.67
2018-08-20T08:47:46.025Z,4.60
2018-08-20T08:50:15.801Z,3.87
2018-08-20T08:52:44.506Z,4.43
2018-08-20T08:55:12.986Z,4.10
2018-08-20T08:57:41.407Z,3.77
2018-08-20T09:00:18.684Z,4.70
2018-08-20T09:02:47.341Z,4.57
2018-08-20T09:05:15.885Z,4.10
2018-08-20T09:07:44.465Z,3.93
2018-08-20T09:10:13.410Z,3.80
2018-08-20T09:12:53.164Z,3.60
2018-08-20T09:15:21.770Z,3.40
2018-08-20T09:17:50.193Z,3.13
2018-08-20T09:20:18.729Z,2.97
2018-08-20T09:22:47.160Z,3.27
2018-08-20T09:25:16.157Z,3.47
2018-08-20T09:27:45.626Z,2.97
2018-08-20T09:30:16.666Z,3.00
2018-08-20T09:32:46.121Z,2.80
2018-08-20T09:35:14.571Z,3.17
2018-08-20T09:37:43.643Z,3.30
2018-08-20T09:40:12.613Z,3.20
2018-08-20T09:42:41.685Z,3.60
2018-08-20T09:45:10.381Z,3.20
2018-08-20T09:47:39.731Z,3.10
2018-08-20T09:50:09.913Z,3.13
2018-08-20T09:52:38.391Z,2.97
2018-08-20T09:55:07.673Z,3.30
2018-08-20T09:57:36.177Z,3.00
2018-08-20T10:00:07.090Z,3.50
2018-08-20T10:02:35.581Z,3.60
2018-08-20T10:05:04.114Z,3.13
2018-08-20T10:07:32.710Z,3.60
2018-08-20T10:10:01.580Z,3.40
2018-08-20T10:12:46.591Z,3.47
2018-08-20T10:15:15.506Z,3.40
2018-08-20T10:17:53.169Z,2.97
2018-08-20T10:26:11.045Z,3.00
2018-08-20T10:28:49.868Z,2.53
2018-08-20T10:31:24.494Z,3.23
2018-08-20T10:33:53.258Z,3.53
2018-08-20T10:36:21.822Z,3.03
2018-08-20T10:38:50.213Z,3.03
2018-08-20T10:41:22.906Z,3.33
2018-08-20T10:43:51.367Z,3.30
2018-08-20T10:46:20.149Z,3.37
2018-08-20T10:48:48.825Z,3.23
2018-08-20T10:51:17.255Z,3.37
2018-08-20T10:53:45.689Z,3.57
2018-08-20T10:56:14.665Z,3.50
2018-08-20T10:58:43.077Z,3.50
2018-08-20T11:01:11.485Z,3.67
2018-08-20T11:03:43.335Z,3.37
2018-08-20T11:06:11.729Z,3.13
2018-08-20T11:08:42.224Z,3.17
2018-08-20T11:11:10.622Z,3.10
2018-08-20T11:13:39.081Z,3.60
2018-08-20T11:16:07.526Z,3.10
2018-08-20T11:18:39.643Z,3.10
2018-08-20T11:21:08.030Z,2.90
2018-08-20T11:23:36.478Z,3.03
2018-08-20T11:26:04.887Z,3.00
2018-08-20T11:28:33.351Z,2.80
2018-08-20T11:31:01.797Z,2.97
2018-08-20T11:33:30.263Z,3.20
2018-08-20T11:36:03.110Z,3.93
2018-08-20T11:38:31.575Z,4.20
2018-08-20T11:40:59.996Z,3.87
2018-08-20T11:43:28.425Z,3.50
2018-08-20T11:45:56.804Z,4.10
2018-08-20T11:48:25.233Z,3.80
2018-08-20T11:50:53.657Z,4.40
2018-08-20T11:53:23.097Z,4.70
2018-08-20T11:55:51.642Z,3.80
2018-08-20T11:58:20.051Z,4.23
2018-08-20T12:00:48.466Z,3.97
2018-08-20T12:03:17.464Z,4.63
2018-08-20T12:05:46.408Z,3.80
2018-08-20T12:08:15.414Z,4.73
2018-08-20T12:10:44.386Z,5.10
2018-08-20T12:13:13.047Z,4.80
2018-08-20T12:15:41.477Z,5.13
2018-08-20T12:18:09.921Z,5.70
2018-08-20T12:20:38.385Z,5.80
2018-08-20T12:23:07.783Z,5.63
2018-08-20T12:25:36.205Z,4.77
2018-08-20T12:28:04.683Z,4.77
2018-08-20T12:30:33.141Z,4.03
2018-08-20T12:33:01.606Z,4.13
2018-08-20T12:35:30.073Z,4.23
2018-08-20T12:37:58.477Z,4.40
2018-08-20T12:40:27.127Z,4.30
2018-08-20T12:42:56.024Z,4.40
2018-08-20T12:45:24.476Z,4.77
2018-08-20T12:47:52.897Z,4.37
2018-08-20T12:50:23.340Z,4.23
2018-08-20T12:52:51.815Z,4.33
2018-08-20T12:55:20.213Z,4.47
2018-08-20T12:57:49.038Z,6.90
2018-08-20T13:00:17.948Z,7.00
2018-08-20T13:14:18.800Z,8.40
2018-08-20T13:16:47.278Z,4.27
2018-08-20T13:19:15.709Z,3.90
2018-08-20T13:21:44.148Z,3.50
2018-08-20T13:24:12.647Z,2.90
2018-08-20T13:26:41.117Z,3.40
2018-08-20T13:29:09.624Z,4.30
2018-08-20T13:31:40.217Z,4.00
2018-08-20T13:34:08.679Z,4.70
2018-08-20T13:36:37.112Z,4.20
2018-08-20T13:39:07.085Z,5.00
2018-08-20T13:41:35.679Z,5.10
2018-08-20T13:44:04.293Z,5.40
2018-08-20T13:46:32.679Z,5.30
2018-08-20T13:49:01.120Z,4.70
2018-08-20T13:51:29.546Z,4.63
2018-08-20T13:53:57.936Z,4.30
2018-08-20T13:56:26.385Z,4.13
2018-08-20T13:58:54.805Z,4.77
2018-08-20T14:01:23.213Z,4.50
2018-08-20T14:03:51.623Z,4.07
2018-08-20T14:06:20.049Z,4.50
2018-08-20T14:08:48.469Z,4.63
2018-08-20T14:11:16.880Z,4.77
2018-08-20T14:13:45.255Z,3.77
2018-08-20T14:16:13.686Z,4.40
2018-08-20T14:18:42.130Z,4.33
2018-08-20T14:21:13.181Z,4.70
2018-08-20T14:23:43.262Z,4.07
2018-08-20T14:26:11.747Z,3.00
2018-08-20T14:28:40.154Z,3.77
2018-08-20T14:31:08.642Z,3.53
2018-08-20T14:33:37.065Z,3.80
2018-08-20T14:36:05.973Z,4.10
2018-08-20T14:38:34.761Z,3.87
2018-08-20T14:41:03.282Z,4.70
2018-08-20T14:43:31.761Z,4.63
2018-08-20T14:46:06.381Z,4.10
2018-08-20T14:48:34.868Z,3.77
2018-08-20T14:51:03.439Z,4.27
2018-08-20T14:53:31.942Z,4.20
2018-08-20T14:56:00.376Z,3.27
2018-08-20T14:58:28.857Z,3.40
2018-08-20T15:00:57.343Z,3.23
2018-08-20T15:03:25.902Z,3.30
2018-08-20T15:05:54.432Z,3.33
2018-08-20T15:08:22.914Z,3.30
2018-08-20T15:10:51.476Z,3.60
2018-08-20T15:13:20.861Z,3.60
2018-08-20T15:15:49.290Z,3.63
2018-08-20T15:18:17.710Z,3.40
2018-08-20T15:20:46.187Z,3.50
2018-08-20T15:23:14.637Z,3.30
2018-08-20T15:25:43.077Z,3.10
2018-08-20T15:28:11.543Z,3.40
2018-08-20T15:30:40.004Z,5.13
2018-08-20T15:33:08.590Z,6.67
2018-08-20T15:35:43.738Z,4.40
2018-08-20T15:38:12.244Z,3.27
2018-08-20T15:40:41.713Z,3.87
2018-08-20T15:43:10.157Z,5.87
2018-08-20T15:45:38.605Z,4.40
2018-08-20T15:48:07.402Z,4.07
2018-08-20T15:50:35.883Z,3.80
2018-08-20T15:53:07.962Z,4.00
2018-08-20T15:55:36.319Z,3.67
2018-08-20T15:58:05.031Z,3.90
2018-08-20T16:00:34.309Z,4.60
2018-08-20T16:03:03.873Z,4.13
2018-08-20T16:05:32.350Z,4.40
2018-08-20T16:08:00.794Z,4.00
2018-08-20T16:10:29.386Z,5.00
2018-08-20T16:12:57.898Z,4.23
2018-08-20T16:15:26.305Z,4.37
2018-08-20T16:17:54.710Z,4.60
2018-08-20T16:20:23.165Z,4.60
2018-08-20T16:22:51.634Z,5.77
2018-08-20T16:25:20.073Z,4.93
2018-08-20T16:27:48.477Z,5.03
2018-08-20T16:30:16.930Z,5.10
2018-08-20T16:32:45.386Z,6.07
2018-08-20T16:35:17.236Z,4.93
2018-08-20T16:37:45.700Z,5.60
2018-08-20T16:40:14.186Z,5.27
2018-08-20T16:42:42.667Z,6.03
2018-08-20T16:45:11.183Z,6.47
2018-08-20T16:47:40.021Z,6.30
2018-08-20T16:50:10.465Z,6.50
2018-08-20T16:52:38.929Z,6.63
2018-08-20T16:55:07.954Z,6.57
2018-08-20T16:57:36.547Z,7.10
2018-08-20T17:00:06.861Z,6.63
2018-08-20T17:02:36.108Z,6.50
2018-08-20T17:05:04.705Z,7.87
2018-08-20T17:07:33.218Z,8.93
2018-08-20T17:10:01.664Z,9.50
2018-08-20T17:12:30.110Z,9.23
2018-08-20T17:14:59.545Z,9.53
2018-08-20T17:17:28.009Z,10.03
2018-08-20T17:19:56.421Z,9.20
2018-08-20T17:22:24.876Z,9.43
2018-08-20T17:24:56.676Z,9.83
2018-08-20T17:27:25.129Z,9.63
2018-08-20T17:29:55.635Z,10.63
2018-08-20T17:32:24.134Z,10.33
2018-08-20T17:34:52.700Z,10.70
2018-08-20T17:37:21.925Z,11.23
2018-08-20T17:40:06.285Z,9.93
2018-08-20T17:42:35.035Z,11.20
2018-08-20T17:45:03.952Z,12.03
2018-08-20T17:47:32.814Z,11.17
2018-08-20T17:50:01.644Z,12.17
2018-08-20T17:52:34.107Z,13.20
2018-08-20T17:55:04.056Z,12.80
2018-08-20T17:57:32.610Z,13.67
2018-08-20T18:00:42.897Z,12.40
2018-08-20T18:03:18.881Z,12.07
2018-08-20T18:05:56.018Z,12.03
2018-08-20T18:08:25.613Z,12.50
2018-08-20T18:10:54.197Z,12.80
2018-08-20T18:13:49.511Z,11.27
2018-08-20T18:16:19.458Z,12.93
2018-08-20T18:18:49.311Z,13.23
2018-08-20T18:21:17.851Z,13.10
2018-08-20T18:23:46.371Z,12.87
2018-08-20T18:26:16.029Z,11.87
2018-08-20T18:28:49.911Z,11.73
2018-08-20T18:31:25.094Z,12.23
2018-08-20T18:33:53.681Z,12.30
2018-08-20T18:36:29.801Z,11.77
2018-08-20T18:39:01.915Z,12.13
2018-08-20T18:41:51.884Z,12.43
2018-08-20T18:44:21.777Z,14.27
2018-08-20T18:46:50.873Z,13.23
2018-08-20T18:49:19.576Z,12.93
2018-08-20T18:52:07.313Z,14.23
2018-08-20T18:54:40.488Z,14.50
2018-08-20T18:57:09.566Z,12.43
2018-08-20T18:59:39.271Z,13.80
2018-08-20T19:02:09.772Z,15.10
2018-08-20T19:04:43.456Z,14.23
2018-08-20T19:07:16.017Z,15.10
2018-08-20T19:09:48.512Z,13.87
2018-08-20T19:12:17.039Z,12.57
2018-08-20T19:14:45.568Z,12.73
2018-08-20T19:17:27.291Z,13.63
2018-08-20T19:20:00.298Z,13.73
2018-08-20T19:22:29.817Z,13.97
2018-08-20T19:24:58.293Z,14.03
2018-08-20T19:27:28.943Z,14.20
2018-08-20T19:29:57.473Z,13.67
2018-08-20T19:32:26.209Z,13.07
2018-08-20T19:34:54.675Z,12.93
2018-08-20T19:37:23.334Z,13.63
2018-08-20T19:39:51.799Z,13.30
2018-08-20T19:42:38.725Z,13.70
2018-08-20T19:45:09.130Z,12.60
2018-08-20T19:47:37.601Z,12.13
2018-08-20T19:50:07.515Z,11.10
2018-08-20T19:52:36.060Z,11.47
2018-08-20T19:55:08.882Z,12.03
2018-08-20T19:57:37.527Z,11.67
2018-08-20T20:00:09.190Z,10.47
2018-08-20T20:02:37.809Z,10.20
2018-08-20T20:05:06.963Z,10.23
2018-08-20T20:07:36.884Z,10.13
2018-08-20T20:10:13.885Z,10.00
2018-08-20T20:12:47.712Z,9.20
2018-08-20T20:15:16.185Z,8.43
2018-08-20T20:17:44.752Z,8.20
2018-08-20T20:20:13.197Z,8.23
2018-08-20T20:22:42.693Z,9.03
2018-08-20T20:25:11.198Z,8.27
2018-08-20T20:27:39.678Z,7.23
2018-08-20T20:30:08.606Z,7.40
2018-08-20T20:32:37.113Z,7.40
2018-08-20T20:35:07.173Z,6.97
2018-08-20T20:37:35.671Z,7.03
2018-08-20T20:40:04.277Z,7.23
2018-08-20T20:42:32.777Z,7.33
2018-08-20T20:45:01.298Z,8.50
2018-08-20T20:47:29.830Z,8.23
2018-08-20T20:50:00.434Z,8.27
2018-08-20T20:52:29.012Z,8.93
2018-08-20T20:54:57.517Z,8.57
2018-08-20T20:57:25.948Z,9.07
2018-08-20T20:59:54.769Z,9.33
2018-08-20T21:02:23.246Z,9.63
2018-08-20T21:04:51.723Z,9.27
2018-08-20T21:07:24.713Z,9.33
2018-08-20T21:09:53.256Z,9.03
2018-08-20T21:12:21.874Z,8.23
2018-08-20T21:14:50.413Z,8.80
2018-08-20T21:17:18.896Z,9.00
2018-08-20T21:19:47.447Z,8.97
2018-08-20T21:22:15.861Z,8.93
2018-08-20T21:24:44.373Z,8.70
2018-08-20T21:27:18.899Z,9.07
2018-08-20T21:29:47.448Z,8.93
2018-08-20T21:32:15.893Z,8.47
2018-08-20T21:34:44.424Z,9.10
2018-08-20T21:37:12.873Z,8.83
2018-08-20T21:39:41.389Z,9.13
2018-08-20T21:42:09.868Z,9.73
2018-08-20T21:44:38.487Z,8.90
2018-08-20T21:47:25.142Z,9.50
2018-08-20T21:49:53.582Z,9.10
2018-08-20T21:52:22.126Z,9.97
2018-08-20T21:54:50.538Z,10.80
2018-08-20T21:57:19.090Z,10.00
2018-08-20T21:59:59.281Z,10.10
2018-08-20T22:02:32.081Z,10.43
2018-08-20T22:05:00.533Z,11.03
2018-08-20T22:07:28.988Z,10.33
2018-08-20T22:09:57.418Z,10.73
2018-08-20T22:12:26.133Z,10.50
2018-08-20T22:14:54.582Z,10.50
2018-08-20T22:17:28.134Z,10.17
2018-08-20T22:19:56.698Z,10.33
2018-08-20T22:22:27.055Z,10.47
2018-08-20T22:24:58.843Z,9.27
2018-08-20T22:27:28.003Z,9.83
2018-08-20T22:30:00.417Z,9.53
2018-08-20T22:32:30.342Z,10.20
2018-08-20T22:34:58.945Z,10.33
2018-08-20T22:37:27.368Z,10.03
2018-08-20T22:40:01.102Z,10.20
2018-08-20T22:42:41.893Z,9.73
2018-08-20T22:45:11.621Z,10.33
2018-08-20T22:47:40.136Z,9.17
2018-08-20T22:50:08.581Z,9.90
2018-08-20T22:52:37.005Z,10.67
2018-08-20T22:55:07.272Z,9.30
2018-08-20T22:57:35.695Z,9.70
2018-08-20T23:00:11.220Z,10.47
2018-08-20T23:02:39.757Z,9.80
2018-08-20T23:05:12.357Z,9.50
2018-08-20T23:07:40.797Z,9.97
2018-08-20T23:10:09.297Z,10.40
2018-08-20T23:12:40.792Z,10.40
2018-08-20T23:15:10.015Z,10.17
2018-08-20T23:17:38.479Z,10.73
2018-08-20T23:20:12.434Z,9.70
2018-08-20T23:22:40.853Z,10.87
2018-08-20T23:25:09.407Z,10.67
2018-08-20T23:27:40.861Z,11.93
2018-08-20T23:30:10.391Z,10.77
2018-08-20T23:32:38.831Z,11.17
2018-08-20T23:35:07.321Z,10.57
2018-08-20T23:37:36.090Z,10.87
2018-08-20T23:40:05.154Z,10.50
2018-08-20T23:42:33.582Z,10.17
2018-08-20T23:45:02.547Z,10.57
2018-08-20T23:47:30.993Z,10.20
2018-08-20T23:49:59.519Z,10.13
2018-08-20T23:52:27.942Z,10.60
2018-08-20T23:54:56.358Z,11.00
2018-08-20T23:57:24.775Z,10.47
2018-08-20T23:59:53.208Z,10.90
